Aérodrome :
LOGIN :

S'inscrire | Disclaimer

   EN    FR    IT 

 










Légende :    VFR   VFR Marginal   IFR   IFR Intensif   IFR Très Intensif
Visi : 
Plafond : 
>= 8 km
>= 3000ft
5 à 8 km
1000 à 3000 ft
1500m à 5 km
500 à 1000 ft
800 à 1500m
200 à 500 ft
< 800m
< 200 ft
Symboles :   Orages  Brouillard  Fortes neiges  Fortes précipitations  Vent > 20 kt
SIGMETs :   Divers  Orages  Givrage  Turbulence  Onde Orograph.  Cendres Volcan.






- Altitude de l'aérodrome : 299 ft
- Code IATA : EDM


LFRI - La Roche Sur Yon - Les Ajoncs

DERNIER METAR :
  • 200800Z AUTO 04015KT CAVOK 02/00 Q1042 TEMPO 04015G25KT

METARs EXPIRÉS :
  • 200730Z AUTO 03014KT CAVOK 01/00 Q1042 TEMPO 04015G25KT
  • 200700Z AUTO 03013KT CAVOK 01/00 Q1042 NOSIG
  • 200630Z AUTO 03012KT CAVOK 01/00 Q1042 NOSIG
  • 200600Z AUTO 03011KT CAVOK 01/M00 Q1042 NOSIG
  • 200530Z AUTO 04012KT CAVOK 02/00 Q1042 NOSIG

TAF TAF LFRI
Valide du 20 à 06h jusqu'au 21 à 06h UTC


200500Z 2006/2106 03012KT CAVOK
TEMPO 2009/2018 04015G25KT
TEMPO 2100/2106 BKN010



MET'MAP, la Météo Aéronautique d'un coup d'oeil ! - Copyright ORBIFLY Décembre 2007 - Disclaimer

ORBIFLY MET'MAP TEAM :

Programmation & Développement : Alexandra Zaïnal
Sur une idée originale de : Baudouin d'Aumeries
Assistance à la programmation : Marc-Olivier Méhu
Soutien technique & logistique : Manuel Goepfert

Contact : metmap@orbifly.com




SOURCES & CREDITS :

   NOAA